Time;durP1;ratioP1;P1;durP2;ratioP2;P2;SDS_P1;SDS_P2;PMS_P1;PMS_P2;Temp;Humidity;BMP_temperature;BMP_pressure;BME280_temperature;BME280_humidity;BME280_pressure;Samples;Min_cycle;Max_cycle;Signal;HPM_P1;HPM_P2
2023/06/20 00:01:30;;;;;;;10.98;7.72;;;19.30;99.90;;;;;;4927817;29;20078;-87
2023/06/20 00:03:58;;;;;;;10.85;8.02;;;19.30;99.90;;;;;;4942954;29;20086;-87
2023/06/20 00:06:24;;;;;;;10.05;7.63;;;19.30;99.90;;;;;;4926652;29;20039;-87
2023/06/20 00:08:50;;;;;;;11.98;8.48;;;19.30;99.90;;;;;;4926564;29;20050;-87
2023/06/20 00:11:16;;;;;;;11.23;7.95;;;19.30;99.90;;;;;;4926100;29;20626;-88
2023/06/20 00:13:43;;;;;;;11.93;8.15;;;19.30;99.90;;;;;;4942193;29;20043;-87
2023/06/20 00:16:10;;;;;;;12.57;7.65;;;19.30;99.90;;;;;;4926129;29;20042;-88
2023/06/20 00:18:36;;;;;;;13.57;8.40;;;19.30;99.90;;;;;;4958126;29;20043;-87
2023/06/20 00:21:02;;;;;;;10.93;7.70;;;19.20;99.90;;;;;;4910961;29;20027;-88
2023/06/20 00:23:29;;;;;;;14.32;8.60;;;19.20;99.90;;;;;;4941944;29;20031;-88
2023/06/20 00:25:56;;;;;;;11.60;8.52;;;19.20;99.90;;;;;;4911452;29;20340;-87
2023/06/20 00:28:22;;;;;;;11.95;8.30;;;19.20;99.90;;;;;;4926321;29;20039;-87
2023/06/20 00:30:49;;;;;;;10.13;8.20;;;19.20;99.90;;;;;;4909882;29;20059;-87
2023/06/20 00:33:18;;;;;;;13.60;9.32;;;19.20;99.90;;;;;;4926542;29;20036;-87
2023/06/20 00:35:45;;;;;;;14.82;9.80;;;19.10;99.90;;;;;;4926393;29;20048;-87
2023/06/20 00:38:11;;;;;;;12.85;9.85;;;19.10;99.90;;;;;;4910087;29;20037;-87
2023/06/20 00:40:38;;;;;;;13.48;10.13;;;19.10;99.90;;;;;;4941990;29;20035;-87
2023/06/20 00:43:04;;;;;;;15.23;10.55;;;19.00;99.90;;;;;;4926186;29;20040;-87
2023/06/20 00:45:34;;;;;;;15.50;10.73;;;19.00;99.90;;;;;;4925898;29;20094;-87
2023/06/20 00:48:05;;;;;;;14.02;10.10;;;19.00;99.90;;;;;;4910419;29;20058;-89
2023/06/20 00:50:35;;;;;;;16.58;11.73;;;19.00;99.90;;;;;;4925955;29;20027;-87
2023/06/20 00:53:06;;;;;;;14.48;10.15;;;19.00;99.90;;;;;;4926438;29;20043;-87
2023/06/20 00:55:34;;;;;;;13.15;10.93;;;18.90;99.90;;;;;;4925830;29;20031;-88
2023/06/20 00:58:03;;;;;;;17.58;11.48;;;19.00;99.90;;;;;;4940677;29;20031;-88
2023/06/20 01:00:33;;;;;;;17.25;12.48;;;18.90;99.90;;;;;;4925366;29;20538;-88
2023/06/20 01:03:06;;;;;;;19.38;12.13;;;18.80;99.90;;;;;;4941544;29;20027;-87
2023/06/20 01:05:33;;;;;;;17.48;12.85;;;18.80;99.90;;;;;;4910095;29;20031;-89
2023/06/20 01:08:12;;;;;;;15.18;12.32;;;18.80;99.90;;;;;;4894556;29;20400;-87
2023/06/20 01:10:49;;;;;;;15.15;11.73;;;18.80;99.90;;;;;;4910005;29;20042;-87
2023/06/20 01:13:35;;;;;;;17.80;12.77;;;18.70;99.90;;;;;;4910024;29;20036;-87
2023/06/20 01:16:01;;;;;;;;;;;18.70;99.90;;;;;;4910538;29;20039;-88
2023/06/20 01:18:43;;;;;;;16.40;12.07;;;18.60;99.90;;;;;;4921294;29;19921;-88
2023/06/20 01:21:15;;;;;;;16.08;13.55;;;18.70;99.90;;;;;;4938379;29;20043;-87
2023/06/20 01:23:54;;;;;;;17.45;14.02;;;18.60;99.90;;;;;;4921750;29;20028;-88
2023/06/20 01:26:32;;;;;;;17.40;13.18;;;18.60;99.90;;;;;;4938215;29;20031;-87
2023/06/20 01:29:19;;;;;;;18.85;13.98;;;18.60;99.90;;;;;;4906429;29;20039;-87
2023/06/20 01:31:52;;;;;;;16.30;13.27;;;18.60;99.90;;;;;;4921831;29;20111;-87
2023/06/20 01:34:29;;;;;;;17.70;13.10;;;18.60;99.90;;;;;;4921918;29;20028;-88
2023/06/20 01:37:00;;;;;;;17.77;13.15;;;18.60;99.90;;;;;;4937609;29;20120;-87
2023/06/20 01:39:32;;;;;;;16.65;13.85;;;18.60;99.90;;;;;;4907269;29;20058;-86
2023/06/20 01:42:03;;;;;;;17.17;13.70;;;18.60;99.90;;;;;;4924821;29;20030;-86
2023/06/20 01:44:35;;;;;;;17.23;12.82;;;18.60;99.90;;;;;;4940798;29;20074;-89
2023/06/20 01:47:04;;;;;;;15.95;12.73;;;18.60;99.90;;;;;;4941411;29;20030;-91
2023/06/20 01:49:31;;;;;;;16.92;13.65;;;18.60;99.90;;;;;;4956628;29;20050;-86
2023/06/20 01:51:59;;;;;;;16.10;13.73;;;18.60;99.90;;;;;;4925207;29;20159;-87
2023/06/20 01:54:29;;;;;;;16.70;13.65;;;18.50;99.90;;;;;;4940616;29;20046;-87
2023/06/20 01:56:59;;;;;;;16.83;13.80;;;18.50;99.90;;;;;;4924704;29;20441;-86
2023/06/20 01:59:26;;;;;;;18.15;14.77;;;18.50;99.90;;;;;;4956182;29;20027;-87
2023/06/20 02:01:55;;;;;;;17.70;13.88;;;18.60;99.90;;;;;;4940775;29;20038;-86
2023/06/20 02:04:22;;;;;;;17.90;14.32;;;18.60;99.90;;;;;;4956315;29;20055;-87
2023/06/20 02:06:50;;;;;;;16.55;12.45;;;18.60;99.90;;;;;;4940431;29;20425;-87
2023/06/20 02:09:16;;;;;;;14.98;12.98;;;18.60;99.90;;;;;;4939963;29;20048;-89
2023/06/20 02:11:45;;;;;;;20.02;14.88;;;18.50;99.90;;;;;;4924580;29;20354;-87
2023/06/20 02:14:12;;;;;;;20.35;15.25;;;18.50;99.90;;;;;;4940436;29;20058;-86
2023/06/20 02:16:39;;;;;;;16.83;13.73;;;18.60;99.90;;;;;;4908878;29;20059;-87
2023/06/20 02:19:07;;;;;;;22.45;15.30;;;18.60;99.90;;;;;;4924306;29;20049;-86
2023/06/20 02:21:37;;;;;;;18.58;14.00;;;18.60;99.90;;;;;;4940390;29;20479;-86
2023/06/20 02:24:06;;;;;;;19.58;15.27;;;18.60;99.90;;;;;;4924356;29;20126;-87
2023/06/20 02:26:35;;;;;;;19.48;14.00;;;18.60;99.90;;;;;;4940035;29;20094;-86
2023/06/20 02:29:05;;;;;;;20.42;14.15;;;18.50;99.90;;;;;;4940245;29;20114;-87
2023/06/20 02:31:34;;;;;;;19.90;16.10;;;18.50;99.90;;;;;;4924308;29;20130;-87
2023/06/20 02:34:04;;;;;;;17.98;14.18;;;18.50;99.90;;;;;;4924542;29;20130;-86
2023/06/20 02:36:31;;;;;;;19.15;15.30;;;18.60;99.90;;;;;;4924353;29;20430;-86
2023/06/20 02:38:57;;;;;;;19.98;14.75;;;18.50;99.90;;;;;;4908612;29;20038;-87
2023/06/20 02:41:24;;;;;;;19.88;15.18;;;18.50;99.90;;;;;;4893441;29;20325;-86
2023/06/20 02:43:50;;;;;;;23.10;16.08;;;18.50;99.90;;;;;;4924461;29;20035;-87
2023/06/20 02:46:49;;;;;;;17.58;13.90;;;18.50;99.90;;;;;;4940094;29;20062;-87
2023/06/20 02:49:50;;;;;;;18.83;14.85;;;18.50;99.90;;;;;;4912147;29;20134;-87
2023/06/20 02:52:37;;;;;;;19.73;15.32;;;18.50;99.90;;;;;;4924183;29;20050;-87
2023/06/20 02:55:36;;;;;;;16.38;14.52;;;18.50;99.90;;;;;;4927131;29;20126;-86
2023/06/20 02:58:09;;;;;;;17.67;14.13;;;18.50;99.90;;;;;;4927836;29;20125;-87
2023/06/20 03:00:37;;;;;;;19.88;14.30;;;18.50;99.90;;;;;;4943142;29;20027;-89
2023/06/20 03:03:08;;;;;;;16.83;13.43;;;18.50;99.90;;;;;;4960409;29;20027;-86
2023/06/20 03:05:38;;;;;;;17.15;13.43;;;18.50;99.90;;;;;;4912046;29;20036;-86
2023/06/20 03:08:06;;;;;;;17.75;12.60;;;18.50;99.90;;;;;;4912009;29;20121;-86
2023/06/20 03:10:32;;;;;;;17.08;12.55;;;18.50;99.90;;;;;;4896384;29;20476;-86
2023/06/20 03:12:59;;;;;;;16.35;11.65;;;18.50;99.90;;;;;;4911377;29;20429;-86
2023/06/20 03:15:27;;;;;;;16.10;11.90;;;18.50;99.90;;;;;;4911859;29;20098;-86
2023/06/20 03:17:54;;;;;;;15.05;10.90;;;18.50;99.90;;;;;;4927502;29;20054;-85
2023/06/20 03:20:20;;;;;;;16.23;11.52;;;18.50;99.90;;;;;;4895957;29;20757;-87
2023/06/20 03:22:46;;;;;;;17.33;10.63;;;18.50;99.90;;;;;;4927359;29;20121;-86
2023/06/20 03:25:14;;;;;;;14.60;10.73;;;18.50;99.90;;;;;;4912709;29;20433;-87
2023/06/20 03:27:40;;;;;;;13.38;9.77;;;18.50;99.90;;;;;;4942903;29;20428;-86
2023/06/20 03:30:08;;;;;;;14.13;9.50;;;18.50;99.90;;;;;;4927773;29;20031;-87
2023/06/20 03:32:40;;;;;;;14.30;9.65;;;18.50;99.90;;;;;;4911433;29;20107;-87
2023/06/20 03:35:07;;;;;;;13.07;9.48;;;18.50;99.90;;;;;;4927145;29;20031;-87
2023/06/20 03:37:33;;;;;;;12.68;9.27;;;18.50;99.90;;;;;;4895274;29;20102;-88
2023/06/20 03:40:00;;;;;;;11.90;8.88;;;18.50;99.90;;;;;;4926946;29;20035;-87
2023/06/20 03:42:26;;;;;;;12.27;8.82;;;18.50;99.90;;;;;;4911107;29;20039;-87
2023/06/20 03:44:52;;;;;;;12.30;8.35;;;18.40;99.90;;;;;;4911627;29;20031;-87
2023/06/20 03:47:19;;;;;;;13.85;8.18;;;18.50;99.90;;;;;;4927391;29;20038;-87
2023/06/20 03:49:45;;;;;;;11.82;8.27;;;18.50;99.90;;;;;;4926865;29;20043;-87
2023/06/20 03:52:11;;;;;;;12.27;7.93;;;18.50;99.90;;;;;;4926795;29;20031;-86
2023/06/20 03:54:39;;;;;;;13.15;8.18;;;18.40;99.90;;;;;;4926683;29;20127;-86
2023/06/20 03:57:05;;;;;;;12.05;8.23;;;18.50;99.90;;;;;;4910827;29;20421;-87
2023/06/20 03:59:31;;;;;;;11.60;7.82;;;18.40;99.90;;;;;;4925915;29;20027;-87
2023/06/20 04:01:57;;;;;;;12.80;8.15;;;18.40;99.90;;;;;;4957825;29;20035;-88
2023/06/20 04:04:24;;;;;;;11.55;7.55;;;18.40;99.90;;;;;;4910205;28;20099;-87
2023/06/20 04:06:50;;;;;;;11.95;8.15;;;18.50;99.90;;;;;;4894658;29;20444;-87
2023/06/20 04:09:19;;;;;;;10.30;7.82;;;18.50;99.90;;;;;;4925680;29;20043;-88
2023/06/20 04:11:46;;;;;;;13.52;7.97;;;18.50;99.90;;;;;;4942164;29;20365;-86
2023/06/20 04:14:13;;;;;;;9.85;7.47;;;18.50;99.90;;;;;;4926280;29;20043;-86
2023/06/20 04:16:40;;;;;;;12.75;7.63;;;18.50;99.90;;;;;;4926913;29;20039;-88
2023/06/20 04:19:08;;;;;;;13.02;8.10;;;18.50;99.90;;;;;;4903897;29;20044;-87
2023/06/20 04:21:36;;;;;;;11.32;7.88;;;18.50;99.90;;;;;;4904509;29;20088;-87
2023/06/20 04:24:03;;;;;;;9.77;7.05;;;18.50;99.90;;;;;;4873492;29;20044;-87
2023/06/20 04:26:31;;;;;;;9.43;6.75;;;18.60;99.90;;;;;;4919809;29;20322;-89
2023/06/20 04:28:57;;;;;;;11.13;7.20;;;18.50;99.90;;;;;;4889307;29;20092;-86
2023/06/20 04:31:24;;;;;;;11.63;7.70;;;18.50;99.90;;;;;;4904067;29;20039;-87
2023/06/20 04:33:51;;;;;;;13.13;7.97;;;18.60;99.90;;;;;;4934436;29;20107;-86
2023/06/20 04:36:17;;;;;;;13.82;7.13;;;18.60;99.90;;;;;;4872478;29;20051;-87
2023/06/20 04:38:46;;;;;;;11.65;7.38;;;18.60;99.90;;;;;;4902426;29;20059;-89
2023/06/20 04:41:12;;;;;;;11.95;7.45;;;18.60;99.90;;;;;;4887771;29;20123;-86
2023/06/20 04:43:44;;;;;;;10.43;6.60;;;18.60;99.90;;;;;;4887048;29;20028;-87
2023/06/20 04:46:15;;;;;;;10.13;6.85;;;18.60;99.90;;;;;;4873700;29;20135;-89
2023/06/20 04:48:41;;;;;;;11.60;6.75;;;18.70;99.90;;;;;;4918645;29;20060;-87
2023/06/20 04:51:09;;;;;;;10.45;6.50;;;18.70;99.90;;;;;;4903237;29;20064;-88
2023/06/20 04:53:36;;;;;;;10.30;6.25;;;18.70;99.90;;;;;;4898333;29;20064;-87
2023/06/20 04:56:02;;;;;;;9.63;6.60;;;18.70;99.90;;;;;;4899269;29;20071;-87
2023/06/20 04:58:28;;;;;;;9.82;6.82;;;18.80;99.90;;;;;;4904537;29;20107;-86
2023/06/20 05:00:56;;;;;;;9.90;6.72;;;18.70;99.90;;;;;;4922534;29;20035;-87
2023/06/20 05:03:22;;;;;;;9.52;7.03;;;18.80;99.90;;;;;;4922634;29;20056;-87
2023/06/20 05:05:49;;;;;;;10.32;6.95;;;18.80;99.90;;;;;;4915205;29;20036;-88
2023/06/20 05:08:15;;;;;;;11.30;7.10;;;18.80;99.90;;;;;;4920960;29;20035;-87
2023/06/20 05:10:41;;;;;;;8.73;6.55;;;18.80;99.90;;;;;;4886816;29;20043;-87
2023/06/20 05:13:07;;;;;;;10.40;6.90;;;18.80;99.90;;;;;;4911657;29;20329;-86
2023/06/20 05:15:33;;;;;;;10.98;6.70;;;18.90;99.90;;;;;;4878173;29;20028;-87
2023/06/20 05:18:01;;;;;;;12.05;7.10;;;18.90;99.90;;;;;;4910771;29;20036;-87
2023/06/20 05:20:27;;;;;;;12.60;7.13;;;18.90;99.90;;;;;;4925238;29;20488;-87
2023/06/20 05:22:53;;;;;;;12.60;7.30;;;19.00;99.90;;;;;;4886891;29;20111;-86
2023/06/20 05:25:19;;;;;;;11.73;7.40;;;18.90;99.90;;;;;;4934341;29;20067;-85
2023/06/20 05:27:47;;;;;;;12.20;6.80;;;19.00;99.90;;;;;;4928217;29;20032;-87
2023/06/20 05:30:13;;;;;;;15.65;7.70;;;19.00;99.90;;;;;;4918804;29;20118;-87
2023/06/20 05:32:39;;;;;;;14.13;7.50;;;19.00;99.90;;;;;;4896173;29;20032;-87
2023/06/20 05:35:07;;;;;;;10.32;6.90;;;19.00;99.90;;;;;;4890651;29;20119;-86
2023/06/20 05:37:36;;;;;;;10.73;7.80;;;19.00;99.90;;;;;;4904403;29;20048;-89
2023/06/20 05:40:06;;;;;;;11.20;7.55;;;19.10;99.90;;;;;;4894691;29;20041;-86
2023/06/20 05:42:32;;;;;;;13.82;8.60;;;19.10;99.90;;;;;;4916970;29;20032;-86
2023/06/20 05:44:58;;;;;;;11.27;7.55;;;19.10;99.90;;;;;;4930578;29;20503;-86
2023/06/20 05:47:24;;;;;;;10.00;8.07;;;19.10;99.90;;;;;;4907602;29;20040;-87
2023/06/20 05:49:50;;;;;;;13.40;8.77;;;19.10;99.90;;;;;;4936984;29;20471;-86
2023/06/20 05:52:16;;;;;;;10.25;7.80;;;19.20;99.90;;;;;;4891281;29;20040;-88
2023/06/20 05:54:48;;;;;;;10.35;7.65;;;19.20;99.90;;;;;;4921543;29;20027;-88
2023/06/20 05:57:14;;;;;;;12.43;8.25;;;19.20;99.90;;;;;;4905686;29;20032;-88
2023/06/20 05:59:40;;;;;;;12.93;7.97;;;19.20;99.90;;;;;;4921662;29;20040;-87
2023/06/20 06:02:06;;;;;;;12.20;8.15;;;19.20;99.90;;;;;;4921702;29;20444;-88
2023/06/20 06:04:33;;;;;;;13.65;8.75;;;19.20;99.90;;;;;;4922164;29;20040;-87
2023/06/20 06:06:59;;;;;;;10.98;8.60;;;19.20;99.90;;;;;;4921273;29;20036;-88
2023/06/20 06:09:25;;;;;;;13.32;8.23;;;19.20;99.90;;;;;;4870460;29;20051;-87
2023/06/20 06:11:51;;;;;;;12.35;8.10;;;19.20;99.90;;;;;;4917748;29;20036;-88
2023/06/20 06:14:18;;;;;;;11.65;8.68;;;19.20;99.90;;;;;;4918363;29;20072;-87
2023/06/20 06:16:44;;;;;;;15.25;8.60;;;19.30;99.90;;;;;;4903038;29;20036;-87
2023/06/20 06:19:11;;;;;;;12.73;8.05;;;19.30;99.90;;;;;;4921331;29;20048;-87
2023/06/20 06:21:37;;;;;;;12.32;8.57;;;19.30;99.90;;;;;;4890471;29;20117;-87
2023/06/20 06:24:04;;;;;;;10.63;7.85;;;19.30;99.90;;;;;;4908643;29;20031;-86
2023/06/20 06:26:30;;;;;;;11.43;8.60;;;19.30;99.90;;;;;;4906053;29;20058;-87
2023/06/20 06:28:56;;;;;;;11.63;8.23;;;19.30;99.90;;;;;;4906718;29;20042;-88
2023/06/20 06:31:26;;;;;;;12.98;8.90;;;19.40;99.90;;;;;;4894208;29;20130;-89
2023/06/20 06:33:54;;;;;;;10.82;8.27;;;19.40;99.90;;;;;;4909988;29;20036;-87
2023/06/20 06:36:24;;;;;;;11.70;8.52;;;19.40;99.90;;;;;;4909604;29;20043;-88
2023/06/20 06:38:51;;;;;;;13.57;8.80;;;19.50;99.90;;;;;;4941959;29;20070;-87
2023/06/20 06:41:18;;;;;;;12.98;9.00;;;19.40;99.90;;;;;;4909676;29;20103;-87
2023/06/20 06:43:45;;;;;;;13.63;9.40;;;19.50;99.90;;;;;;4925116;29;20155;-88
2023/06/20 06:46:11;;;;;;;13.10;9.15;;;19.50;99.90;;;;;;4893838;29;20036;-87
2023/06/20 06:48:37;;;;;;;10.75;8.48;;;19.60;99.90;;;;;;4909398;29;20135;-87
2023/06/20 06:51:03;;;;;;;13.88;9.10;;;19.60;99.90;;;;;;4893440;29;20039;-87
2023/06/20 06:53:29;;;;;;;10.18;8.57;;;19.70;99.90;;;;;;4893232;29;20047;-87
2023/06/20 06:55:55;;;;;;;11.55;8.10;;;19.70;99.90;;;;;;4924639;29;20047;-87
2023/06/20 06:58:21;;;;;;;13.65;8.43;;;19.80;99.90;;;;;;4893453;29;20425;-87
2023/06/20 07:00:47;;;;;;;13.73;8.93;;;19.90;99.90;;;;;;4908386;29;20317;-87
2023/06/20 07:03:15;;;;;;;11.65;8.38;;;20.00;99.90;;;;;;4877055;29;20032;-86
2023/06/20 07:05:44;;;;;;;14.95;8.63;;;20.00;99.90;;;;;;4893382;29;20139;-89
2023/06/20 07:08:10;;;;;;;12.07;8.65;;;20.10;99.90;;;;;;4892735;29;20429;-88
2023/06/20 07:10:36;;;;;;;10.70;8.20;;;20.10;99.90;;;;;;4908599;29;20032;-87
2023/06/20 07:13:05;;;;;;;11.80;8.45;;;20.20;99.90;;;;;;4908341;29;20094;-87
2023/06/20 07:15:32;;;;;;;12.70;8.18;;;20.20;99.90;;;;;;4878350;29;20094;-87
2023/06/20 07:18:01;;;;;;;12.57;9.20;;;20.30;99.90;;;;;;4905059;29;20402;-88
2023/06/20 07:20:27;;;;;;;12.73;8.75;;;20.30;99.90;;;;;;4874578;29;20032;-88
2023/06/20 07:22:53;;;;;;;11.10;9.02;;;20.40;99.90;;;;;;4905202;29;20032;-87
2023/06/20 07:25:19;;;;;;;15.32;9.32;;;20.40;99.90;;;;;;4921119;29;20035;-87
2023/06/20 07:27:45;;;;;;;10.73;8.43;;;20.50;99.90;;;;;;4905509;29;20355;-86
2023/06/20 07:30:11;;;;;;;13.07;8.98;;;20.50;99.90;;;;;;4890108;29;20387;-86
2023/06/20 07:32:37;;;;;;;11.82;8.48;;;20.60;99.90;;;;;;4890102;29;20028;-87
2023/06/20 07:35:03;;;;;;;14.02;8.88;;;20.70;99.90;;;;;;4905528;29;20032;-87
2023/06/20 07:37:30;;;;;;;10.73;8.73;;;20.80;99.90;;;;;;4874632;29;20123;-87
2023/06/20 07:39:55;;;;;;;13.20;9.23;;;20.80;99.90;;;;;;4920590;29;20362;-87
2023/06/20 07:42:21;;;;;;;12.60;8.75;;;21.00;99.90;;;;;;4920919;29;20430;-87
2023/06/20 07:44:47;;;;;;;10.48;8.68;;;21.00;99.90;;;;;;4874249;29;20382;-86
2023/06/20 07:47:13;;;;;;;13.02;10.02;;;21.10;99.90;;;;;;4889829;29;20036;-86
2023/06/20 07:49:39;;;;;;;13.25;8.90;;;21.20;99.90;;;;;;4920691;29;20046;-87
2023/06/20 07:52:06;;;;;;;16.48;10.20;;;21.30;99.90;;;;;;4905308;29;20438;-87
2023/06/20 07:54:32;;;;;;;13.82;9.25;;;21.40;99.90;;;;;;4920657;29;20088;-87
2023/06/20 07:56:58;;;;;;;12.05;10.25;;;21.50;99.90;;;;;;4904612;29;20036;-87
2023/06/20 07:59:24;;;;;;;16.42;10.27;;;21.60;99.90;;;;;;4905172;29;20442;-88
2023/06/20 08:01:50;;;;;;;13.40;9.85;;;21.60;99.90;;;;;;4904735;29;20048;-86
2023/06/20 08:04:16;;;;;;;11.82;9.68;;;21.70;99.90;;;;;;4920370;29;20489;-89
2023/06/20 08:06:41;;;;;;;13.55;10.65;;;21.80;99.90;;;;;;4889487;29;20032;-87
2023/06/20 08:09:08;;;;;;;11.48;9.20;;;21.80;99.90;;;;;;4920221;29;20089;-87
2023/06/20 08:11:37;;;;;;;11.25;9.85;;;21.90;99.90;;;;;;4873790;29;20036;-87
2023/06/20 08:14:03;;;;;;;14.43;10.52;;;21.90;99.90;;;;;;4904715;29;20036;-87
2023/06/20 08:16:29;;;;;;;14.07;9.48;;;21.90;99.90;;;;;;4873584;29;20040;-87
2023/06/20 08:18:55;;;;;;;11.63;10.27;;;22.00;99.90;;;;;;4921964;29;20318;-87
2023/06/20 08:21:21;;;;;;;18.20;10.98;;;22.00;99.90;;;;;;4904636;29;20028;-88
2023/06/20 08:23:47;;;;;;;12.60;10.70;;;22.10;99.90;;;;;;4889196;29;20091;-90
2023/06/20 08:26:13;;;;;;;13.68;9.80;;;22.10;99.90;;;;;;4889181;29;20051;-87
2023/06/20 08:28:39;;;;;;;12.85;10.38;;;22.20;99.90;;;;;;4904281;29;20127;-87
2023/06/20 08:31:05;;;;;;;12.77;10.82;;;22.30;99.90;;;;;;4888743;29;20110;-89
2023/06/20 08:33:31;;;;;;;12.13;10.52;;;22.30;99.90;;;;;;4904428;29;20501;-87
2023/06/20 08:35:57;;;;;;;15.05;10.90;;;22.40;99.90;;;;;;4888512;29;20036;-87
2023/06/20 08:38:23;;;;;;;11.55;9.85;;;22.40;99.90;;;;;;4919935;29;20036;-87
2023/06/20 08:40:50;;;;;;;12.50;10.52;;;22.40;99.90;;;;;;4904399;29;20032;-91
2023/06/20 08:43:17;;;;;;;16.40;11.32;;;22.40;99.90;;;;;;4904233;29;20107;-87
2023/06/20 08:45:44;;;;;;;15.88;10.88;;;22.50;99.90;;;;;;4904160;29;20028;-87
2023/06/20 08:48:10;;;;;;;13.35;11.38;;;22.50;99.90;;;;;;4888091;29;20040;-88
2023/06/20 08:50:37;;;;;;;13.65;11.32;;;22.50;99.90;;;;;;4872976;29;20039;-86
2023/06/20 08:53:06;;;;;;;12.90;10.73;;;22.50;99.90;;;;;;4903043;29;20123;-87
2023/06/20 08:55:36;;;;;;;14.27;10.85;;;22.60;99.90;;;;;;4888542;29;20032;-87
2023/06/20 08:58:14;;;;;;;12.48;10.98;;;22.60;99.90;;;;;;4904150;29;20028;-87
2023/06/20 09:00:40;;;;;;;13.82;11.15;;;22.70;99.90;;;;;;4888303;29;20032;-86
2023/06/20 09:03:07;;;;;;;14.38;11.95;;;22.70;99.90;;;;;;4888441;29;20319;-87
2023/06/20 09:05:42;;;;;;;12.95;11.18;;;22.70;99.90;;;;;;4888758;29;20044;-87
2023/06/20 09:08:12;;;;;;;14.18;10.75;;;22.90;99.90;;;;;;4889185;29;20044;-87
2023/06/20 09:10:39;;;;;;;15.35;10.50;;;23.00;99.90;;;;;;4919974;29;20035;-89
2023/06/20 09:13:06;;;;;;;15.15;11.80;;;23.20;99.90;;;;;;4904601;29;20032;-88
2023/06/20 09:15:36;;;;;;;12.80;10.27;;;23.30;99.90;;;;;;4873787;29;20040;-88
2023/06/20 09:18:02;;;;;;;13.20;10.68;;;23.50;99.90;;;;;;4911961;29;20340;-89
2023/06/20 09:20:30;;;;;;;15.65;10.10;;;23.60;99.90;;;;;;4922982;29;20044;-90
2023/06/20 09:22:56;;;;;;;11.75;9.68;;;23.80;99.90;;;;;;4922558;29;20035;-89
2023/06/20 09:25:25;;;;;;;12.00;9.75;;;23.80;99.90;;;;;;4938975;29;20032;-89
2023/06/20 09:27:55;;;;;;;13.07;10.60;;;23.90;99.90;;;;;;4922785;29;20043;-88
2023/06/20 09:30:21;;;;;;;13.43;10.13;;;24.00;99.90;;;;;;4922919;29;20039;-89
2023/06/20 09:32:47;;;;;;;14.60;9.77;;;24.00;99.90;;;;;;4922802;29;20040;-89
2023/06/20 09:35:14;;;;;;;13.05;10.20;;;24.10;99.90;;;;;;4907028;29;20046;-88
2023/06/20 09:37:46;;;;;;;15.68;10.27;;;24.10;99.90;;;;;;4938542;29;20046;-89
2023/06/20 09:40:17;;;;;;;12.67;9.00;;;24.20;99.90;;;;;;4938692;29;20123;-88
2023/06/20 09:42:44;;;;;;;9.82;8.82;;;24.20;99.90;;;;;;4938265;29;20030;-88
2023/06/20 09:45:13;;;;;;;10.60;8.55;;;24.30;99.90;;;;;;4938171;29;20040;-91
2023/06/20 09:47:41;;;;;;;11.88;9.27;;;24.40;99.90;;;;;;4906682;29;20036;-89
2023/06/20 09:50:08;;;;;;;10.82;7.75;;;24.50;99.90;;;;;;4937881;29;20074;-88
2023/06/20 09:52:37;;;;;;;10.55;8.82;;;24.60;99.90;;;;;;4906974;29;20039;-89
2023/06/20 09:55:08;;;;;;;11.25;8.70;;;24.70;99.90;;;;;;4891074;29;20335;-89
2023/06/20 09:57:42;;;;;;;11.45;9.18;;;24.70;99.90;;;;;;4906942;29;20034;-88
2023/06/20 10:00:13;;;;;;;10.98;9.05;;;24.90;99.90;;;;;;4939254;29;20083;-89
2023/06/20 10:02:42;;;;;;;9.88;8.77;;;24.90;99.90;;;;;;4922243;29;20024;-89
2023/06/20 10:05:10;;;;;;;11.02;8.40;;;25.10;99.90;;;;;;4922611;29;20024;-89
2023/06/20 10:07:38;;;;;;;11.63;8.40;;;25.30;99.90;;;;;;4906528;29;20198;-89
2023/06/20 10:10:04;;;;;;;10.68;8.57;;;25.30;99.90;;;;;;4907167;29;20044;-89
2023/06/20 10:12:31;;;;;;;10.32;8.07;;;25.40;99.90;;;;;;4891340;29;20059;-89
2023/06/20 10:14:59;;;;;;;12.00;8.90;;;25.50;99.90;;;;;;4921889;29;20054;-89
2023/06/20 10:17:35;;;;;;;12.48;8.85;;;25.60;99.90;;;;;;4922517;29;20051;-88
2023/06/20 10:20:06;;;;;;;9.20;7.28;;;25.70;99.90;;;;;;4903890;29;20032;-89
2023/06/20 10:22:42;;;;;;;10.38;7.88;;;25.80;99.90;;;;;;4921829;29;20111;-88
2023/06/20 10:25:14;;;;;;;10.30;7.20;;;26.00;99.90;;;;;;4906398;29;20031;-89
2023/06/20 10:27:54;;;;;;;9.32;7.00;;;26.10;99.90;;;;;;4896551;29;20040;-89
2023/06/20 10:30:49;;;;;;;10.43;7.50;;;26.30;99.90;;;;;;4903878;29;20070;-89
2023/06/20 10:33:26;;;;;;;9.20;6.57;;;26.40;99.90;;;;;;4891114;29;20052;-89
2023/06/20 10:36:04;;;;;;;11.20;5.63;;;26.50;99.90;;;;;;4919414;29;20064;-89
2023/06/20 10:38:51;;;;;;;9.20;6.28;;;26.60;99.90;;;;;;4918904;29;20418;-90
2023/06/20 10:41:24;;;;;;;9.50;7.10;;;26.70;99.90;;;;;;4892701;29;20430;-89
2023/06/20 10:43:57;;;;;;;8.27;6.28;;;26.70;99.90;;;;;;4887689;29;20052;-89
2023/06/20 10:46:47;;;;;;;9.73;5.70;;;26.80;99.90;;;;;;4918895;29;20032;-89
2023/06/20 10:49:14;;;;;;;8.18;5.57;;;26.80;99.90;;;;;;4901716;29;20040;-89
2023/06/20 10:51:46;;;;;;;8.82;6.32;;;26.90;99.90;;;;;;4918998;29;20051;-89
2023/06/20 10:54:16;;;;;;;9.57;7.00;;;27.00;99.90;;;;;;4887555;29;20039;-89
2023/06/20 10:56:46;;;;;;;8.43;6.78;;;27.10;99.90;;;;;;4903601;29;20036;-90
2023/06/20 10:59:14;;;;;;;8.95;6.80;;;27.10;99.90;;;;;;4919330;29;20160;-88
2023/06/20 11:01:40;;;;;;;12.15;6.70;;;27.20;99.90;;;;;;4887960;29;20041;-89
2023/06/20 11:04:08;;;;;;;8.45;7.18;;;27.20;99.90;;;;;;4902753;29;20032;-89
2023/06/20 11:06:34;;;;;;;10.20;7.35;;;27.20;99.90;;;;;;4903020;29;20043;-89
2023/06/20 11:09:00;;;;;;;11.52;6.75;;;27.30;99.90;;;;;;4919303;29;20115;-89
2023/06/20 11:11:39;;;;;;;12.63;7.25;;;27.40;99.90;;;;;;4902989;29;20321;-89
2023/06/20 11:14:19;;;;;;;11.77;6.95;;;27.60;99.90;;;;;;4887094;29;20036;-89
2023/06/20 11:16:47;;;;;;;10.73;6.95;;;27.60;99.90;;;;;;4890894;29;20054;-89
2023/06/20 11:19:20;;;;;;;10.18;6.20;;;27.70;99.90;;;;;;4928416;29;20039;-89
2023/06/20 11:21:49;;;;;;;7.05;6.25;;;27.70;99.90;;;;;;4928330;29;20031;-89
2023/06/20 11:24:19;;;;;;;10.82;6.13;;;27.80;99.90;;;;;;4928550;29;20034;-89
2023/06/20 11:26:45;;;;;;;7.03;5.68;;;27.80;99.90;;;;;;4928144;29;20127;-89
2023/06/20 11:29:11;;;;;;;7.13;5.43;;;27.90;99.90;;;;;;4911920;29;20047;-88
2023/06/20 11:31:37;;;;;;;6.65;4.55;;;28.00;99.90;;;;;;4928198;29;20046;-89
2023/06/20 11:34:30;;;;;;;9.27;4.82;;;28.20;99.60;;;;;;4943974;29;20070;-89
2023/06/20 11:36:56;;;;;;;8.15;4.47;;;28.30;99.70;;;;;;4927899;29;20061;-88
2023/06/20 11:39:24;;;;;;;6.82;4.60;;;28.40;99.50;;;;;;4928466;29;20411;-88
2023/06/20 11:41:50;;;;;;;6.75;4.50;;;28.50;99.00;;;;;;4944348;29;20061;-89
2023/06/20 11:44:25;;;;;;;6.55;5.00;;;28.60;99.00;;;;;;4912428;29;20066;-89
2023/06/20 11:46:51;;;;;;;8.50;5.18;;;28.70;98.60;;;;;;4927903;29;20329;-88
2023/06/20 11:49:31;;;;;;;8.35;5.20;;;28.80;98.60;;;;;;4928211;29;20447;-88
2023/06/20 11:51:59;;;;;;;6.15;4.35;;;28.90;98.50;;;;;;4912316;29;20050;-89
2023/06/20 11:54:25;;;;;;;6.15;4.40;;;29.00;98.40;;;;;;4912370;29;20031;-89
2023/06/20 11:56:51;;;;;;;7.07;4.78;;;29.10;98.30;;;;;;4927629;29;20332;-88
2023/06/20 11:59:24;;;;;;;8.13;4.75;;;29.20;98.50;;;;;;4896407;29;20306;-88
2023/06/20 12:01:51;;;;;;;8.65;5.20;;;29.30;98.10;;;;;;4927706;29;20325;-89
2023/06/20 12:04:21;;;;;;;7.97;4.50;;;29.30;97.80;;;;;;4912122;29;20035;-89
2023/06/20 12:06:53;;;;;;;8.00;4.50;;;29.30;97.90;;;;;;4927514;29;20035;-89
2023/06/20 12:09:19;;;;;;;7.32;4.22;;;29.40;97.60;;;;;;4912512;29;20126;-89
2023/06/20 12:11:47;;;;;;;7.85;4.55;;;29.50;97.50;;;;;;4911949;29;20039;-88
2023/06/20 12:14:16;;;;;;;6.38;4.70;;;29.60;97.00;;;;;;4912119;29;20046;-89
2023/06/20 12:16:43;;;;;;;5.90;4.35;;;29.60;96.40;;;;;;4959774;29;20102;-89
2023/06/20 12:19:09;;;;;;;7.15;4.20;;;29.60;96.60;;;;;;4943182;29;20114;-90
2023/06/20 12:21:43;;;;;;;7.45;3.95;;;29.60;96.30;;;;;;4943247;29;20082;-89
2023/06/20 12:24:11;;;;;;;7.07;4.07;;;29.60;96.00;;;;;;4927091;29;20464;-90
2023/06/20 12:26:38;;;;;;;5.57;4.05;;;29.70;96.00;;;;;;4943105;29;20118;-88
2023/06/20 12:29:04;;;;;;;6.00;4.53;;;29.70;96.00;;;;;;4927115;29;20031;-88
2023/06/20 12:31:31;;;;;;;7.10;4.38;;;29.80;96.00;;;;;;4911193;29;20102;-89
2023/06/20 12:34:00;;;;;;;6.10;4.35;;;29.80;95.90;;;;;;4927641;29;20117;-88
2023/06/20 12:36:26;;;;;;;6.80;4.80;;;29.90;95.80;;;;;;4926904;29;20580;-88
2023/06/20 12:38:52;;;;;;;6.32;4.53;;;29.90;95.90;;;;;;4927048;29;20086;-89
2023/06/20 12:41:20;;;;;;;7.63;4.22;;;30.00;95.80;;;;;;4911111;29;20039;-88
2023/06/20 12:43:46;;;;;;;6.75;4.32;;;30.00;95.60;;;;;;4926881;29;20027;-89